Hlavní strana
METAR-TAF:

METAR-TAF

Letiště :

Letiště Berlín-Tegel

Berlín, Německo

zeměpisná šířka: 52-34N, zeměpisná délka: 013-19E, výška: 37 m

Aktuální stav počasí

Zpráva byla vytvořena před 31 minutami, v 08:20 UTC
Jihozápadní vítr 6 kt, proměnlivý mezi jižním a západním
Teplota 23°C
Vlhkost vzduchu 50%
Tlak 1018 hPa
Viditelnost 10 km a více
Žádná oblačnost pod 1500 m, nevyskytují se cumulonimby.

METAR: EDDT 200820Z 23006KT 190V260 CAVOK 23/12 Q1018 NOSIG

Čas: 10:51 (08:51 UTC)

Předpověď počasí

Zpráva byla vytvořena před 3 hodinami a 51 minutami, v 05:00 UTC
Předpověď platná od 20 v 06 UTC do 21 v 06 UTC
Jihozápadní vítr 4 kt
Viditelnost 10 km a více
Žádná oblačnost pod 1500 m, nevyskytují se cumulonimby.
Změna
od 20 v 08 UTC do 20 v 10 UTC
Jihozápadní vítr 9 kt
Změna
od 20 v 16 UTC do 20 v 18 UTC
Jižní vítr 4 kt

TAF: EDDT 200500Z 2006/2106 23004KT CAVOK BECMG 2008/2010 22009KT BECMG 2016/2018 18004KT

Stav a předpovědi počasí z více než 4 000 letišť (zprávy METAR a TAF).

Červené a žluté tečky na mapě představují dostupné meteorologické stanice.

Když kurzor umístíte na tečku, zobrazí se název stanice.

Pak kliknutím zobrazíte stav a předpověď počasí.

Chcete-li změnit mapu, kliknutím na zelené tlačítko se znaménkem +mapu přiblížíte, kliknutím na zelené tlačítko se znaménkem – mapu oddálíte a kliknutím na zelené šipky přejdete na sousední mapy.


METAR-TAF: